sensor_id;sensor_type;location;lat;lon;timestamp;P1;durP1;ratioP1;P2;durP2;ratioP2
60722;SDS011;46574;52.818;6.516;2023-07-29T00:01:01;12.15;;;10.90;;
60722;SDS011;46574;52.818;6.516;2023-07-29T00:03:27;11.30;;;10.20;;
60722;SDS011;46574;52.818;6.516;2023-07-29T00:05:55;11.02;;;10.02;;
60722;SDS011;46574;52.818;6.516;2023-07-29T00:08:21;9.13;;;8.23;;
60722;SDS011;46574;52.818;6.516;2023-07-29T00:10:46;13.02;;;10.57;;
60722;SDS011;46574;52.818;6.516;2023-07-29T00:13:12;10.32;;;9.15;;
60722;SDS011;46574;52.818;6.516;2023-07-29T00:15:38;9.55;;;8.50;;
60722;SDS011;46574;52.818;6.516;2023-07-29T00:18:03;12.35;;;11.15;;
60722;SDS011;46574;52.818;6.516;2023-07-29T00:20:29;12.57;;;10.68;;
60722;SDS011;46574;52.818;6.516;2023-07-29T00:22:55;11.02;;;9.93;;
60722;SDS011;46574;52.818;6.516;2023-07-29T00:25:21;11.60;;;10.40;;
60722;SDS011;46574;52.818;6.516;2023-07-29T00:27:47;11.05;;;9.77;;
60722;SDS011;46574;52.818;6.516;2023-07-29T00:30:13;11.77;;;9.90;;
60722;SDS011;46574;52.818;6.516;2023-07-29T00:32:38;11.07;;;9.98;;
60722;SDS011;46574;52.818;6.516;2023-07-29T00:35:04;11.60;;;10.40;;
60722;SDS011;46574;52.818;6.516;2023-07-29T00:37:31;11.25;;;9.95;;
60722;SDS011;46574;52.818;6.516;2023-07-29T00:39:56;10.02;;;9.05;;
60722;SDS011;46574;52.818;6.516;2023-07-29T00:42:23;11.40;;;10.20;;
60722;SDS011;46574;52.818;6.516;2023-07-29T00:44:49;9.65;;;8.68;;
60722;SDS011;46574;52.818;6.516;2023-07-29T00:47:15;11.80;;;9.73;;
60722;SDS011;46574;52.818;6.516;2023-07-29T00:49:42;9.23;;;8.25;;
60722;SDS011;46574;52.818;6.516;2023-07-29T00:52:08;9.80;;;8.15;;
60722;SDS011;46574;52.818;6.516;2023-07-29T00:54:37;10.90;;;8.77;;
60722;SDS011;46574;52.818;6.516;2023-07-29T00:57:07;10.23;;;9.05;;
60722;SDS011;46574;52.818;6.516;2023-07-29T00:59:35;11.38;;;9.52;;
60722;SDS011;46574;52.818;6.516;2023-07-29T01:02:01;9.18;;;8.20;;
60722;SDS011;46574;52.818;6.516;2023-07-29T01:04:27;10.60;;;8.07;;
60722;SDS011;46574;52.818;6.516;2023-07-29T01:09:31;9.25;;;8.25;;
60722;SDS011;46574;52.818;6.516;2023-07-29T01:12:12;8.75;;;7.85;;
60722;SDS011;46574;52.818;6.516;2023-07-29T01:20:51;7.78;;;6.97;;
60722;SDS011;46574;52.818;6.516;2023-07-29T01:23:25;8.20;;;7.28;;
60722;SDS011;46574;52.818;6.516;2023-07-29T01:25:54;9.30;;;7.97;;
60722;SDS011;46574;52.818;6.516;2023-07-29T01:28:20;9.23;;;8.32;;
60722;SDS011;46574;52.818;6.516;2023-07-29T01:30:46;7.85;;;7.15;;
60722;SDS011;46574;52.818;6.516;2023-07-29T01:33:18;8.95;;;8.05;;
60722;SDS011;46574;52.818;6.516;2023-07-29T01:35:55;9.35;;;8.23;;
60722;SDS011;46574;52.818;6.516;2023-07-29T01:38:30;9.43;;;8.15;;
60722;SDS011;46574;52.818;6.516;2023-07-29T01:41:02;9.32;;;8.43;;
60722;SDS011;46574;52.818;6.516;2023-07-29T01:43:31;7.72;;;7.03;;
60722;SDS011;46574;52.818;6.516;2023-07-29T01:45:57;9.15;;;8.25;;
60722;SDS011;46574;52.818;6.516;2023-07-29T01:48:23;10.13;;;8.27;;
60722;SDS011;46574;52.818;6.516;2023-07-29T01:50:49;9.55;;;8.50;;
60722;SDS011;46574;52.818;6.516;2023-07-29T01:53:15;8.45;;;7.65;;
60722;SDS011;46574;52.818;6.516;2023-07-29T01:55:42;8.63;;;7.40;;
60722;SDS011;46574;52.818;6.516;2023-07-29T01:58:09;7.40;;;6.70;;
60722;SDS011;46574;52.818;6.516;2023-07-29T02:00:35;8.70;;;7.80;;
60722;SDS011;46574;52.818;6.516;2023-07-29T02:03:01;9.50;;;8.35;;
60722;SDS011;46574;52.818;6.516;2023-07-29T02:05:26;7.80;;;7.10;;
60722;SDS011;46574;52.818;6.516;2023-07-29T02:07:52;8.30;;;7.43;;
60722;SDS011;46574;52.818;6.516;2023-07-29T02:10:18;7.88;;;6.90;;
60722;SDS011;46574;52.818;6.516;2023-07-29T02:12:43;8.18;;;7.28;;
60722;SDS011;46574;52.818;6.516;2023-07-29T02:15:09;7.30;;;6.60;;
60722;SDS011;46574;52.818;6.516;2023-07-29T02:17:35;8.18;;;7.03;;
60722;SDS011;46574;52.818;6.516;2023-07-29T02:20:01;8.95;;;8.05;;
60722;SDS011;46574;52.818;6.516;2023-07-29T02:22:28;8.45;;;7.30;;
60722;SDS011;46574;52.818;6.516;2023-07-29T02:24:54;8.40;;;7.45;;
60722;SDS011;46574;52.818;6.516;2023-07-29T02:27:19;8.63;;;7.53;;
60722;SDS011;46574;52.818;6.516;2023-07-29T02:29:45;9.30;;;7.45;;
60722;SDS011;46574;52.818;6.516;2023-07-29T02:32:11;8.95;;;7.97;;
60722;SDS011;46574;52.818;6.516;2023-07-29T02:34:36;7.57;;;6.57;;
60722;SDS011;46574;52.818;6.516;2023-07-29T02:37:02;8.63;;;7.53;;
60722;SDS011;46574;52.818;6.516;2023-07-29T02:39:28;10.63;;;7.70;;
60722;SDS011;46574;52.818;6.516;2023-07-29T02:41:54;9.90;;;8.30;;
60722;SDS011;46574;52.818;6.516;2023-07-29T02:44:21;8.60;;;7.68;;
60722;SDS011;46574;52.818;6.516;2023-07-29T02:46:46;11.63;;;7.30;;
60722;SDS011;46574;52.818;6.516;2023-07-29T02:49:12;11.30;;;8.13;;
60722;SDS011;46574;52.818;6.516;2023-07-29T02:51:38;7.50;;;6.75;;
60722;SDS011;46574;52.818;6.516;2023-07-29T02:54:03;8.90;;;6.80;;
60722;SDS011;46574;52.818;6.516;2023-07-29T02:56:29;7.22;;;5.97;;
60722;SDS011;46574;52.818;6.516;2023-07-29T02:58:55;8.80;;;6.72;;
60722;SDS011;46574;52.818;6.516;2023-07-29T03:01:22;8.38;;;6.93;;
60722;SDS011;46574;52.818;6.516;2023-07-29T03:03:50;9.85;;;8.45;;
60722;SDS011;46574;52.818;6.516;2023-07-29T03:06:15;8.05;;;7.25;;
60722;SDS011;46574;52.818;6.516;2023-07-29T03:08:41;7.30;;;6.50;;
60722;SDS011;46574;52.818;6.516;2023-07-29T03:11:09;7.07;;;6.30;;
60722;SDS011;46574;52.818;6.516;2023-07-29T03:13:36;8.70;;;7.30;;
60722;SDS011;46574;52.818;6.516;2023-07-29T03:16:06;7.53;;;6.70;;
60722;SDS011;46574;52.818;6.516;2023-07-29T03:18:32;6.70;;;6.03;;
60722;SDS011;46574;52.818;6.516;2023-07-29T03:20:58;9.02;;;6.45;;
60722;SDS011;46574;52.818;6.516;2023-07-29T03:23:24;6.90;;;6.18;;
60722;SDS011;46574;52.818;6.516;2023-07-29T03:25:50;7.05;;;6.18;;
60722;SDS011;46574;52.818;6.516;2023-07-29T03:28:16;7.10;;;6.40;;
60722;SDS011;46574;52.818;6.516;2023-07-29T03:30:42;6.60;;;5.85;;
60722;SDS011;46574;52.818;6.516;2023-07-29T03:33:08;7.78;;;5.88;;
60722;SDS011;46574;52.818;6.516;2023-07-29T03:35:33;6.32;;;5.72;;
60722;SDS011;46574;52.818;6.516;2023-07-29T03:37:59;7.95;;;6.63;;
60722;SDS011;46574;52.818;6.516;2023-07-29T03:40:24;7.00;;;6.18;;
60722;SDS011;46574;52.818;6.516;2023-07-29T03:42:50;5.55;;;5.05;;
60722;SDS011;46574;52.818;6.516;2023-07-29T03:45:16;6.72;;;5.60;;
60722;SDS011;46574;52.818;6.516;2023-07-29T03:47:41;6.80;;;6.10;;
60722;SDS011;46574;52.818;6.516;2023-07-29T03:50:07;6.63;;;5.93;;
60722;SDS011;46574;52.818;6.516;2023-07-29T03:52:33;5.55;;;5.05;;
60722;SDS011;46574;52.818;6.516;2023-07-29T03:54:59;6.03;;;4.95;;
60722;SDS011;46574;52.818;6.516;2023-07-29T03:57:24;8.20;;;5.18;;
60722;SDS011;46574;52.818;6.516;2023-07-29T03:59:50;4.70;;;4.22;;
60722;SDS011;46574;52.818;6.516;2023-07-29T04:02:16;4.82;;;4.43;;
60722;SDS011;46574;52.818;6.516;2023-07-29T04:04:41;5.30;;;4.53;;
60722;SDS011;46574;52.818;6.516;2023-07-29T04:07:09;5.47;;;4.70;;
60722;SDS011;46574;52.818;6.516;2023-07-29T04:09:34;4.20;;;3.80;;
60722;SDS011;46574;52.818;6.516;2023-07-29T04:12:00;4.53;;;4.13;;
60722;SDS011;46574;52.818;6.516;2023-07-29T04:14:26;5.32;;;4.20;;
60722;SDS011;46574;52.818;6.516;2023-07-29T04:16:52;5.22;;;4.47;;
60722;SDS011;46574;52.818;6.516;2023-07-29T04:19:18;5.93;;;4.50;;
60722;SDS011;46574;52.818;6.516;2023-07-29T04:21:43;5.72;;;4.20;;
60722;SDS011;46574;52.818;6.516;2023-07-29T04:24:09;5.40;;;4.40;;
60722;SDS011;46574;52.818;6.516;2023-07-29T04:26:34;5.03;;;4.43;;
60722;SDS011;46574;52.818;6.516;2023-07-29T04:29:00;4.78;;;3.60;;
60722;SDS011;46574;52.818;6.516;2023-07-29T04:31:26;4.22;;;3.83;;
60722;SDS011;46574;52.818;6.516;2023-07-29T04:33:51;4.00;;;3.60;;
60722;SDS011;46574;52.818;6.516;2023-07-29T04:36:17;4.53;;;3.85;;
60722;SDS011;46574;52.818;6.516;2023-07-29T04:38:43;3.75;;;3.10;;
60722;SDS011;46574;52.818;6.516;2023-07-29T04:41:08;3.58;;;3.20;;
60722;SDS011;46574;52.818;6.516;2023-07-29T04:43:34;3.70;;;2.97;;
60722;SDS011;46574;52.818;6.516;2023-07-29T04:45:59;4.13;;;3.63;;
60722;SDS011;46574;52.818;6.516;2023-07-29T04:48:25;3.92;;;3.20;;
60722;SDS011;46574;52.818;6.516;2023-07-29T04:50:51;3.45;;;2.97;;
60722;SDS011;46574;52.818;6.516;2023-07-29T04:53:16;3.95;;;2.90;;
60722;SDS011;46574;52.818;6.516;2023-07-29T04:55:42;3.47;;;2.47;;
60722;SDS011;46574;52.818;6.516;2023-07-29T04:58:08;3.85;;;3.10;;
60722;SDS011;46574;52.818;6.516;2023-07-29T05:00:34;4.82;;;2.70;;
60722;SDS011;46574;52.818;6.516;2023-07-29T05:03:00;3.53;;;2.38;;
60722;SDS011;46574;52.818;6.516;2023-07-29T05:05:26;4.25;;;3.60;;
60722;SDS011;46574;52.818;6.516;2023-07-29T05:07:52;3.53;;;3.22;;
60722;SDS011;46574;52.818;6.516;2023-07-29T05:10:17;3.33;;;3.00;;
60722;SDS011;46574;52.818;6.516;2023-07-29T05:12:43;4.22;;;2.72;;
60722;SDS011;46574;52.818;6.516;2023-07-29T05:15:09;4.43;;;2.90;;
60722;SDS011;46574;52.818;6.516;2023-07-29T05:17:35;3.47;;;3.17;;
60722;SDS011;46574;52.818;6.516;2023-07-29T05:20:01;4.90;;;2.97;;
60722;SDS011;46574;52.818;6.516;2023-07-29T05:22:27;4.65;;;3.08;;
60722;SDS011;46574;52.818;6.516;2023-07-29T05:24:53;4.47;;;3.63;;
60722;SDS011;46574;52.818;6.516;2023-07-29T05:27:19;3.70;;;3.40;;
60722;SDS011;46574;52.818;6.516;2023-07-29T05:29:44;4.13;;;3.20;;
60722;SDS011;46574;52.818;6.516;2023-07-29T05:32:10;5.22;;;3.03;;
60722;SDS011;46574;52.818;6.516;2023-07-29T05:34:36;3.55;;;3.25;;
60722;SDS011;46574;52.818;6.516;2023-07-29T05:37:02;4.18;;;3.03;;
60722;SDS011;46574;52.818;6.516;2023-07-29T05:39:28;5.13;;;3.70;;
60722;SDS011;46574;52.818;6.516;2023-07-29T05:41:55;4.32;;;3.47;;
60722;SDS011;46574;52.818;6.516;2023-07-29T05:44:20;5.47;;;4.10;;
60722;SDS011;46574;52.818;6.516;2023-07-29T05:46:46;4.40;;;4.00;;
60722;SDS011;46574;52.818;6.516;2023-07-29T05:49:12;4.60;;;3.30;;
60722;SDS011;46574;52.818;6.516;2023-07-29T05:51:38;5.22;;;3.97;;
60722;SDS011;46574;52.818;6.516;2023-07-29T05:54:04;4.85;;;3.90;;
60722;SDS011;46574;52.818;6.516;2023-07-29T05:56:29;5.15;;;4.18;;
60722;SDS011;46574;52.818;6.516;2023-07-29T05:58:56;4.15;;;3.70;;
60722;SDS011;46574;52.818;6.516;2023-07-29T06:01:22;5.70;;;4.63;;
60722;SDS011;46574;52.818;6.516;2023-07-29T06:03:48;5.50;;;4.05;;
60722;SDS011;46574;52.818;6.516;2023-07-29T06:06:14;5.30;;;4.10;;
60722;SDS011;46574;52.818;6.516;2023-07-29T06:08:39;5.88;;;4.88;;
60722;SDS011;46574;52.818;6.516;2023-07-29T06:11:05;4.78;;;4.20;;
60722;SDS011;46574;52.818;6.516;2023-07-29T06:13:34;4.90;;;4.38;;
60722;SDS011;46574;52.818;6.516;2023-07-29T06:15:59;7.20;;;4.55;;
60722;SDS011;46574;52.818;6.516;2023-07-29T06:18:25;8.55;;;4.90;;
60722;SDS011;46574;52.818;6.516;2023-07-29T06:20:51;5.93;;;4.75;;
60722;SDS011;46574;52.818;6.516;2023-07-29T06:23:17;6.40;;;4.93;;
60722;SDS011;46574;52.818;6.516;2023-07-29T06:25:42;5.95;;;4.13;;
60722;SDS011;46574;52.818;6.516;2023-07-29T06:28:11;7.78;;;5.30;;
60722;SDS011;46574;52.818;6.516;2023-07-29T06:30:36;6.15;;;5.07;;
60722;SDS011;46574;52.818;6.516;2023-07-29T06:33:02;8.45;;;5.10;;
60722;SDS011;46574;52.818;6.516;2023-07-29T06:35:28;9.60;;;5.30;;
60722;SDS011;46574;52.818;6.516;2023-07-29T06:37:55;9.70;;;5.03;;
60722;SDS011;46574;52.818;6.516;2023-07-29T06:40:20;5.07;;;3.88;;
60722;SDS011;46574;52.818;6.516;2023-07-29T06:42:46;7.15;;;5.13;;
60722;SDS011;46574;52.818;6.516;2023-07-29T06:45:12;8.65;;;6.28;;
60722;SDS011;46574;52.818;6.516;2023-07-29T06:50:06;10.10;;;5.80;;
60722;SDS011;46574;52.818;6.516;2023-07-29T06:52:33;6.97;;;4.80;;
60722;SDS011;46574;52.818;6.516;2023-07-29T06:54:59;6.95;;;4.80;;
60722;SDS011;46574;52.818;6.516;2023-07-29T06:57:24;9.80;;;6.30;;
60722;SDS011;46574;52.818;6.516;2023-07-29T06:59:53;7.22;;;5.70;;
60722;SDS011;46574;52.818;6.516;2023-07-29T07:02:20;8.23;;;5.88;;
60722;SDS011;46574;52.818;6.516;2023-07-29T07:04:46;5.75;;;5.07;;
60722;SDS011;46574;52.818;6.516;2023-07-29T07:07:11;7.60;;;5.07;;
60722;SDS011;46574;52.818;6.516;2023-07-29T07:09:37;7.15;;;5.90;;
60722;SDS011;46574;52.818;6.516;2023-07-29T07:12:03;7.88;;;5.78;;
60722;SDS011;46574;52.818;6.516;2023-07-29T07:14:28;8.82;;;5.43;;
60722;SDS011;46574;52.818;6.516;2023-07-29T07:16:54;7.45;;;5.50;;
60722;SDS011;46574;52.818;6.516;2023-07-29T07:19:20;8.65;;;6.57;;
60722;SDS011;46574;52.818;6.516;2023-07-29T07:21:46;7.47;;;5.93;;
60722;SDS011;46574;52.818;6.516;2023-07-29T07:24:11;9.38;;;6.10;;
60722;SDS011;46574;52.818;6.516;2023-07-29T07:26:37;9.18;;;6.05;;
60722;SDS011;46574;52.818;6.516;2023-07-29T07:29:03;9.30;;;7.30;;
60722;SDS011;46574;52.818;6.516;2023-07-29T07:31:28;8.82;;;6.30;;
60722;SDS011;46574;52.818;6.516;2023-07-29T07:33:58;6.78;;;6.13;;
60722;SDS011;46574;52.818;6.516;2023-07-29T07:36:23;7.63;;;6.55;;
60722;SDS011;46574;52.818;6.516;2023-07-29T07:38:49;6.57;;;5.72;;
60722;SDS011;46574;52.818;6.516;2023-07-29T07:41:15;10.15;;;5.88;;
60722;SDS011;46574;52.818;6.516;2023-07-29T07:43:40;7.20;;;6.20;;
60722;SDS011;46574;52.818;6.516;2023-07-29T07:46:06;7.03;;;5.82;;
60722;SDS011;46574;52.818;6.516;2023-07-29T07:48:32;8.02;;;6.05;;
60722;SDS011;46574;52.818;6.516;2023-07-29T07:50:58;8.23;;;6.03;;
60722;SDS011;46574;52.818;6.516;2023-07-29T07:53:24;6.85;;;6.13;;
60722;SDS011;46574;52.818;6.516;2023-07-29T07:55:50;7.03;;;6.00;;
60722;SDS011;46574;52.818;6.516;2023-07-29T07:58:16;6.20;;;5.60;;
60722;SDS011;46574;52.818;6.516;2023-07-29T08:00:42;6.72;;;5.97;;
60722;SDS011;46574;52.818;6.516;2023-07-29T08:03:08;6.53;;;5.72;;
60722;SDS011;46574;52.818;6.516;2023-07-29T08:05:33;7.18;;;6.05;;
60722;SDS011;46574;52.818;6.516;2023-07-29T08:07:59;6.82;;;6.13;;
60722;SDS011;46574;52.818;6.516;2023-07-29T08:10:25;7.20;;;5.72;;
60722;SDS011;46574;52.818;6.516;2023-07-29T08:12:51;7.65;;;6.63;;
60722;SDS011;46574;52.818;6.516;2023-07-29T08:15:16;5.53;;;5.05;;
60722;SDS011;46574;52.818;6.516;2023-07-29T08:17:42;6.53;;;5.93;;
60722;SDS011;46574;52.818;6.516;2023-07-29T08:20:08;7.75;;;6.20;;
60722;SDS011;46574;52.818;6.516;2023-07-29T08:22:34;6.78;;;6.07;;
60722;SDS011;46574;52.818;6.516;2023-07-29T08:25:00;7.28;;;5.65;;
60722;SDS011;46574;52.818;6.516;2023-07-29T08:27:26;5.80;;;5.20;;
60722;SDS011;46574;52.818;6.516;2023-07-29T08:29:53;6.30;;;5.70;;
60722;SDS011;46574;52.818;6.516;2023-07-29T08:32:19;5.57;;;4.75;;
60722;SDS011;46574;52.818;6.516;2023-07-29T08:37:13;5.35;;;4.85;;
60722;SDS011;46574;52.818;6.516;2023-07-29T08:39:39;5.45;;;4.93;;
60722;SDS011;46574;52.818;6.516;2023-07-29T08:42:04;5.03;;;4.53;;
60722;SDS011;46574;52.818;6.516;2023-07-29T08:44:35;4.47;;;3.90;;
60722;SDS011;46574;52.818;6.516;2023-07-29T08:47:08;4.80;;;4.40;;
60722;SDS011;46574;52.818;6.516;2023-07-29T08:49:35;4.55;;;3.55;;
60722;SDS011;46574;52.818;6.516;2023-07-29T08:52:01;5.13;;;4.35;;
60722;SDS011;46574;52.818;6.516;2023-07-29T08:54:29;5.03;;;3.58;;
60722;SDS011;46574;52.818;6.516;2023-07-29T08:56:55;4.50;;;3.55;;
60722;SDS011;46574;52.818;6.516;2023-07-29T08:59:22;4.38;;;3.28;;
60722;SDS011;46574;52.818;6.516;2023-07-29T09:01:48;3.97;;;3.20;;
60722;SDS011;46574;52.818;6.516;2023-07-29T09:04:14;3.40;;;2.92;;
60722;SDS011;46574;52.818;6.516;2023-07-29T09:06:43;3.47;;;2.83;;
60722;SDS011;46574;52.818;6.516;2023-07-29T09:09:11;4.00;;;2.85;;
60722;SDS011;46574;52.818;6.516;2023-07-29T09:11:37;3.53;;;3.22;;
60722;SDS011;46574;52.818;6.516;2023-07-29T09:14:04;3.67;;;2.80;;
60722;SDS011;46574;52.818;6.516;2023-07-29T09:16:32;3.08;;;2.30;;
60722;SDS011;46574;52.818;6.516;2023-07-29T09:19:00;2.55;;;2.30;;
60722;SDS011;46574;52.818;6.516;2023-07-29T09:21:28;2.28;;;1.90;;
60722;SDS011;46574;52.818;6.516;2023-07-29T09:23:54;3.42;;;2.08;;
60722;SDS011;46574;52.818;6.516;2023-07-29T09:26:27;4.30;;;2.95;;
60722;SDS011;46574;52.818;6.516;2023-07-29T09:28:55;3.28;;;2.30;;
60722;SDS011;46574;52.818;6.516;2023-07-29T09:31:22;3.25;;;2.40;;
60722;SDS011;46574;52.818;6.516;2023-07-29T09:33:49;2.97;;;2.53;;
60722;SDS011;46574;52.818;6.516;2023-07-29T09:36:15;3.40;;;2.70;;
60722;SDS011;46574;52.818;6.516;2023-07-29T09:38:40;2.95;;;2.35;;
60722;SDS011;46574;52.818;6.516;2023-07-29T09:41:11;2.33;;;1.98;;
60722;SDS011;46574;52.818;6.516;2023-07-29T09:43:39;4.45;;;2.97;;
60722;SDS011;46574;52.818;6.516;2023-07-29T09:46:05;5.05;;;2.65;;
60722;SDS011;46574;52.818;6.516;2023-07-29T09:48:34;5.03;;;2.63;;
60722;SDS011;46574;52.818;6.516;2023-07-29T09:51:11;2.92;;;2.17;;
60722;SDS011;46574;52.818;6.516;2023-07-29T09:53:44;3.58;;;2.30;;
60722;SDS011;46574;52.818;6.516;2023-07-29T09:56:11;3.20;;;2.20;;
60722;SDS011;46574;52.818;6.516;2023-07-29T09:58:37;2.72;;;2.28;;
60722;SDS011;46574;52.818;6.516;2023-07-29T10:01:04;2.47;;;2.17;;
60722;SDS011;46574;52.818;6.516;2023-07-29T10:03:34;3.10;;;2.35;;
60722;SDS011;46574;52.818;6.516;2023-07-29T10:06:02;2.80;;;2.40;;
60722;SDS011;46574;52.818;6.516;2023-07-29T10:08:29;5.43;;;2.83;;
60722;SDS011;46574;52.818;6.516;2023-07-29T10:11:04;3.25;;;2.38;;
60722;SDS011;46574;52.818;6.516;2023-07-29T10:13:31;3.20;;;2.70;;
60722;SDS011;46574;52.818;6.516;2023-07-29T10:15:58;3.25;;;2.60;;
60722;SDS011;46574;52.818;6.516;2023-07-29T10:18:27;4.82;;;3.03;;
60722;SDS011;46574;52.818;6.516;2023-07-29T10:20:53;2.97;;;2.70;;
60722;SDS011;46574;52.818;6.516;2023-07-29T10:23:21;3.22;;;2.92;;
60722;SDS011;46574;52.818;6.516;2023-07-29T10:25:50;3.33;;;3.03;;
60722;SDS011;46574;52.818;6.516;2023-07-29T10:28:34;3.10;;;2.70;;
60722;SDS011;46574;52.818;6.516;2023-07-29T10:31:07;2.75;;;2.55;;
60722;SDS011;46574;52.818;6.516;2023-07-29T10:33:33;3.28;;;2.65;;
60722;SDS011;46574;52.818;6.516;2023-07-29T10:36:00;4.10;;;2.70;;
60722;SDS011;46574;52.818;6.516;2023-07-29T10:38:27;3.20;;;2.90;;
60722;SDS011;46574;52.818;6.516;2023-07-29T10:40:53;4.00;;;3.20;;
60722;SDS011;46574;52.818;6.516;2023-07-29T10:43:36;4.15;;;3.72;;
60722;SDS011;46574;52.818;6.516;2023-07-29T10:46:22;4.00;;;3.35;;
60722;SDS011;46574;52.818;6.516;2023-07-29T10:54:00;4.82;;;4.30;;
60722;SDS011;46574;52.818;6.516;2023-07-29T10:56:28;5.47;;;4.65;;
60722;SDS011;46574;52.818;6.516;2023-07-29T11:01:42;5.47;;;4.70;;
60722;SDS011;46574;52.818;6.516;2023-07-29T11:20:04;7.00;;;4.95;;
60722;SDS011;46574;52.818;6.516;2023-07-29T11:22:30;4.97;;;4.15;;
60722;SDS011;46574;52.818;6.516;2023-07-29T11:24:56;3.40;;;3.00;;
60722;SDS011;46574;52.818;6.516;2023-07-29T11:27:22;5.55;;;3.47;;
60722;SDS011;46574;52.818;6.516;2023-07-29T11:29:48;4.68;;;3.35;;
60722;SDS011;46574;52.818;6.516;2023-07-29T11:32:13;4.68;;;2.80;;
60722;SDS011;46574;52.818;6.516;2023-07-29T11:34:43;3.67;;;2.83;;
60722;SDS011;46574;52.818;6.516;2023-07-29T11:37:10;3.83;;;2.55;;
60722;SDS011;46574;52.818;6.516;2023-07-29T11:39:41;3.47;;;2.50;;
60722;SDS011;46574;52.818;6.516;2023-07-29T11:42:10;4.03;;;2.70;;
60722;SDS011;46574;52.818;6.516;2023-07-29T11:44:36;4.50;;;2.80;;
60722;SDS011;46574;52.818;6.516;2023-07-29T11:47:03;4.32;;;2.45;;
60722;SDS011;46574;52.818;6.516;2023-07-29T11:49:32;3.13;;;2.80;;
60722;SDS011;46574;52.818;6.516;2023-07-29T11:52:00;4.43;;;2.70;;
60722;SDS011;46574;52.818;6.516;2023-07-29T11:54:27;3.60;;;2.47;;
60722;SDS011;46574;52.818;6.516;2023-07-29T11:56:53;4.05;;;2.70;;
60722;SDS011;46574;52.818;6.516;2023-07-29T11:59:20;4.03;;;2.30;;
60722;SDS011;46574;52.818;6.516;2023-07-29T12:01:46;4.13;;;2.40;;
60722;SDS011;46574;52.818;6.516;2023-07-29T12:04:12;3.80;;;2.45;;
60722;SDS011;46574;52.818;6.516;2023-07-29T12:06:38;3.53;;;2.38;;
60722;SDS011;46574;52.818;6.516;2023-07-29T12:09:06;2.83;;;2.47;;
60722;SDS011;46574;52.818;6.516;2023-07-29T12:11:34;2.53;;;2.23;;
60722;SDS011;46574;52.818;6.516;2023-07-29T12:14:00;3.72;;;2.40;;
60722;SDS011;46574;52.818;6.516;2023-07-29T12:16:26;3.13;;;2.60;;
60722;SDS011;46574;52.818;6.516;2023-07-29T12:18:52;3.13;;;2.42;;
60722;SDS011;46574;52.818;6.516;2023-07-29T12:21:20;4.43;;;2.53;;
60722;SDS011;46574;52.818;6.516;2023-07-29T12:26:14;3.35;;;2.22;;
60722;SDS011;46574;52.818;6.516;2023-07-29T12:28:44;3.00;;;2.30;;
60722;SDS011;46574;52.818;6.516;2023-07-29T12:31:12;4.60;;;2.45;;
60722;SDS011;46574;52.818;6.516;2023-07-29T12:33:38;3.05;;;2.25;;
60722;SDS011;46574;52.818;6.516;2023-07-29T12:36:04;3.35;;;2.28;;
60722;SDS011;46574;52.818;6.516;2023-07-29T12:38:30;4.55;;;2.38;;
60722;SDS011;46574;52.818;6.516;2023-07-29T12:40:56;3.65;;;2.22;;
60722;SDS011;46574;52.818;6.516;2023-07-29T12:43:21;4.78;;;2.60;;
60722;SDS011;46574;52.818;6.516;2023-07-29T12:45:51;4.10;;;2.38;;
60722;SDS011;46574;52.818;6.516;2023-07-29T12:48:16;3.80;;;2.40;;
60722;SDS011;46574;52.818;6.516;2023-07-29T12:50:42;3.85;;;2.15;;
60722;SDS011;46574;52.818;6.516;2023-07-29T12:53:09;3.47;;;2.10;;
60722;SDS011;46574;52.818;6.516;2023-07-29T12:55:35;3.00;;;1.83;;
60722;SDS011;46574;52.818;6.516;2023-07-29T12:58:01;3.03;;;2.45;;
60722;SDS011;46574;52.818;6.516;2023-07-29T13:00:27;2.92;;;2.10;;
60722;SDS011;46574;52.818;6.516;2023-07-29T13:02:53;3.55;;;1.95;;
60722;SDS011;46574;52.818;6.516;2023-07-29T13:05:19;2.55;;;1.67;;
60722;SDS011;46574;52.818;6.516;2023-07-29T13:07:45;3.90;;;2.33;;
60722;SDS011;46574;52.818;6.516;2023-07-29T13:10:10;4.13;;;2.00;;
60722;SDS011;46574;52.818;6.516;2023-07-29T13:12:37;3.53;;;2.10;;
60722;SDS011;46574;52.818;6.516;2023-07-29T13:15:02;3.33;;;1.90;;
60722;SDS011;46574;52.818;6.516;2023-07-29T13:17:30;2.97;;;1.90;;
60722;SDS011;46574;52.818;6.516;2023-07-29T13:19:56;4.50;;;2.20;;
60722;SDS011;46574;52.818;6.516;2023-07-29T13:22:23;3.97;;;2.00;;
60722;SDS011;46574;52.818;6.516;2023-07-29T13:24:49;4.85;;;2.60;;
60722;SDS011;46574;52.818;6.516;2023-07-29T13:27:15;2.75;;;2.00;;
60722;SDS011;46574;52.818;6.516;2023-07-29T13:29:41;5.38;;;2.58;;
60722;SDS011;46574;52.818;6.516;2023-07-29T13:32:08;3.42;;;2.30;;
60722;SDS011;46574;52.818;6.516;2023-07-29T13:34:34;2.55;;;2.20;;
60722;SDS011;46574;52.818;6.516;2023-07-29T13:37:00;3.50;;;2.15;;
60722;SDS011;46574;52.818;6.516;2023-07-29T13:39:28;4.45;;;2.50;;
60722;SDS011;46574;52.818;6.516;2023-07-29T13:41:54;2.60;;;2.00;;
60722;SDS011;46574;52.818;6.516;2023-07-29T13:44:21;2.80;;;1.95;;
60722;SDS011;46574;52.818;6.516;2023-07-29T13:46:46;3.35;;;2.28;;
60722;SDS011;46574;52.818;6.516;2023-07-29T13:49:13;5.82;;;3.03;;
60722;SDS011;46574;52.818;6.516;2023-07-29T13:51:39;6.07;;;2.83;;
60722;SDS011;46574;52.818;6.516;2023-07-29T13:54:05;4.72;;;2.90;;
60722;SDS011;46574;52.818;6.516;2023-07-29T13:56:30;3.08;;;2.30;;
60722;SDS011;46574;52.818;6.516;2023-07-29T13:58:57;2.50;;;1.88;;
60722;SDS011;46574;52.818;6.516;2023-07-29T14:01:26;2.72;;;1.80;;
60722;SDS011;46574;52.818;6.516;2023-07-29T14:03:52;3.22;;;1.67;;
60722;SDS011;46574;52.818;6.516;2023-07-29T14:06:17;2.40;;;1.65;;
60722;SDS011;46574;52.818;6.516;2023-07-29T14:08:43;3.25;;;1.58;;
60722;SDS011;46574;52.818;6.516;2023-07-29T14:13:39;3.42;;;2.17;;
60722;SDS011;46574;52.818;6.516;2023-07-29T14:16:04;3.28;;;2.15;;
60722;SDS011;46574;52.818;6.516;2023-07-29T14:18:30;4.63;;;2.42;;
60722;SDS011;46574;52.818;6.516;2023-07-29T14:20:56;3.47;;;2.20;;
60722;SDS011;46574;52.818;6.516;2023-07-29T14:23:21;3.42;;;2.40;;
60722;SDS011;46574;52.818;6.516;2023-07-29T14:25:47;5.00;;;2.30;;
60722;SDS011;46574;52.818;6.516;2023-07-29T14:28:13;3.00;;;2.15;;
60722;SDS011;46574;52.818;6.516;2023-07-29T14:30:39;2.65;;;2.08;;
60722;SDS011;46574;52.818;6.516;2023-07-29T14:33:07;2.63;;;2.03;;
60722;SDS011;46574;52.818;6.516;2023-07-29T14:35:32;4.90;;;2.50;;
60722;SDS011;46574;52.818;6.516;2023-07-29T14:37:58;2.47;;;2.13;;
60722;SDS011;46574;52.818;6.516;2023-07-29T14:40:24;3.22;;;2.40;;
60722;SDS011;46574;52.818;6.516;2023-07-29T14:42:50;3.88;;;3.10;;
60722;SDS011;46574;52.818;6.516;2023-07-29T14:45:18;2.97;;;2.50;;
60722;SDS011;46574;52.818;6.516;2023-07-29T14:50:10;4.93;;;3.60;;
60722;SDS011;46574;52.818;6.516;2023-07-29T14:52:36;4.85;;;2.97;;
60722;SDS011;46574;52.818;6.516;2023-07-29T14:55:02;3.85;;;3.10;;
60722;SDS011;46574;52.818;6.516;2023-07-29T14:57:29;2.63;;;1.90;;
60722;SDS011;46574;52.818;6.516;2023-07-29T14:59:55;2.50;;;2.00;;
60722;SDS011;46574;52.818;6.516;2023-07-29T15:02:23;3.33;;;2.08;;
60722;SDS011;46574;52.818;6.516;2023-07-29T15:04:50;2.50;;;1.90;;
60722;SDS011;46574;52.818;6.516;2023-07-29T15:07:16;3.08;;;1.75;;
60722;SDS011;46574;52.818;6.516;2023-07-29T15:09:41;2.30;;;1.63;;
60722;SDS011;46574;52.818;6.516;2023-07-29T15:12:07;1.80;;;1.40;;
60722;SDS011;46574;52.818;6.516;2023-07-29T15:14:33;3.08;;;1.55;;
60722;SDS011;46574;52.818;6.516;2023-07-29T15:16:59;2.05;;;1.25;;
60722;SDS011;46574;52.818;6.516;2023-07-29T15:19:28;2.67;;;1.70;;
60722;SDS011;46574;52.818;6.516;2023-07-29T15:21:53;2.78;;;1.70;;
60722;SDS011;46574;52.818;6.516;2023-07-29T15:24:19;1.77;;;1.60;;
60722;SDS011;46574;52.818;6.516;2023-07-29T15:26:45;2.30;;;1.65;;